Dukhan — A7LL — position and weather

sailwx.info

Track history (hours):
 
Tides and Currents Weather Stations Pressure Air Temp Water Temp Dewpoint Dewpoint Depression Visibility Wind Speed Wind Dir Waves Ship Positions

Dukhan

Last reported at 2018-Jul-19 13:00 UTC. Time now 2018-Jul-19 13:23 UTC.
Position N 37°35' W 008°56'.

Length 176 m; draft 4.6 m.

Type: Tanker. MMSI: 466217000.

Date/timePositionNaut miles runAvg speedWind from/ knotsBaromVisibWave heightAir tempDewpointWater temp
2018-Jul-19 13:00N 37°35' W 008°56'1 1.3
2018-Jul-19 12:30N 37°36' W 008°57'1 1.2
2018-Jul-19 12:00N 37°36' W 008°57'1 1.0
2018-Jul-19 11:30N 37°36' W 008°58'0 0.9
2018-Jul-19 11:00N 37°37' W 008°58'1 1.1
2018-Jul-19 10:30N 37°37' W 008°59'0 1.0
2018-Jul-19 10:00N 37°37' W 008°59'0 0.8
2018-Jul-19 09:31N 37°37' W 008°60'0 0.7
2018-Jul-19 09:01N 37°37' W 009°00'0 0.8
2018-Jul-19 08:30N 37°37' W 009°01'0 0.7
2018-Jul-19 08:00N 37°37' W 009°01'0 0.8
2018-Jul-19 07:30N 37°37' W 009°02'0 0.8
2018-Jul-19 07:00N 37°37' W 009°02'0 0.8
2018-Jul-19 06:30N 37°37' W 009°03'0 0.8
2018-Jul-19 06:01N 37°38' W 009°03'0 0.8
2018-Jul-19 05:30N 37°38' W 009°04'0 0.7
2018-Jul-19 05:01N 37°38' W 009°04'0 0.8
2018-Jul-19 04:30N 37°38' W 009°05'0 0.8
2018-Jul-19 04:00N 37°38' W 009°05'0 0.8
2018-Jul-19 03:30N 37°38' W 009°06'0 0.9
2018-Jul-19 03:00N 37°38' W 009°06'0 0.9
2018-Jul-19 02:30N 37°38' W 009°07'0 0.8
2018-Jul-19 02:00N 37°38' W 009°07'0 0.9
2018-Jul-19 01:30N 37°39' W 009°08'0 0.9
2018-Jul-19 01:00N 37°39' W 009°08'0 1.0
2018-Jul-19 00:30N 37°39' W 009°09'0 0.9
2018-Jul-19 00:00N 37°39' W 009°09'0 1.0
2018-Jul-18 23:30N 37°39' W 009°10'1 1.1
2018-Jul-18 23:00N 37°40' W 009°10'1 1.2
2018-Jul-18 22:29N 37°40' W 009°11'1 1.2
2018-Jul-18 22:00N 37°41' W 009°11'1 1.4
2018-Jul-18 21:30N 37°41' W 009°12'1 1.5
2018-Jul-18 21:00N 37°42' W 009°12'1 1.4
2018-Jul-18 20:30N 37°42' W 009°13'1 1.3
2018-Jul-18 20:00N 37°43' W 009°13'1 1.2
2018-Jul-18 19:30N 37°43' W 009°14'1 1.2
2018-Jul-18 18:59N 37°44' W 009°14'1 1.2
2018-Jul-18 18:25N 37°44' W 009°15'1 1.4
2018-Jul-18 18:01N 37°45' W 009°15'1 1.4
2018-Jul-18 17:30N 37°46' W 009°16'1 1.3
2018-Jul-18 17:00N 37°46' W 009°16'1 1.3
2018-Jul-18 16:30N 37°47' W 009°16'1 1.3
2018-Jul-18 16:01N 37°47' W 009°17'1 1.3
2018-Jul-18 15:31N 37°48' W 009°17'1 1.4
2018-Jul-18 15:00N 37°48' W 009°17'2 4.5
2018-Jul-18 14:31N 37°48' W 009°15'1313.2
2018-Jul-18 13:30N 37°45' W 008°58'2 3.7
2018-Jul-18 13:00N 37°44' W 008°56'1 1.2
2018-Jul-18 12:30N 37°44' W 008°57'1 1.3
2018-Jul-18 12:01N 37°45' W 008°58'1 1.1
2018-Jul-18 11:31N 37°45' W 008°58'1 1.1
2018-Jul-18 10:30N 37°45' W 008°59'0 1.0
2018-Jul-18 10:00N 37°45' W 009°00'1 1.0
2018-Jul-18 09:31N 37°45' W 009°01'1 1.0
2018-Jul-18 08:58N 37°45' W 009°01'0 1.0
2018-Jul-18 08:31N 37°45' W 009°02'1 1.1
2018-Jul-18 08:01N 37°45' W 009°03'1 1.2
2018-Jul-18 07:30N 37°45' W 009°03'1 1.1
2018-Jul-18 07:00N 37°45' W 009°04'1 1.2
2018-Jul-18 06:31N 37°45' W 009°05'1 1.2
2018-Jul-18 06:00N 37°45' W 009°06'1 1.2
2018-Jul-18 05:31N 37°45' W 009°06'1 1.1
2018-Jul-18 05:01N 37°45' W 009°07'1 1.1
2018-Jul-18 04:29N 37°45' W 009°08'1 1.1
2018-Jul-18 04:01N 37°45' W 009°08'1 1.1
2018-Jul-18 03:30N 37°45' W 009°09'1 1.1
2018-Jul-18 03:00N 37°45' W 009°10'0 1.0
2018-Jul-18 02:30N 37°45' W 009°10'1 1.0
2018-Jul-18 02:01N 37°45' W 009°11'1 1.1
2018-Jul-18 01:30N 37°46' W 009°12'1 1.2
2018-Jul-18 01:01N 37°46' W 009°12'1 1.4
2018-Jul-18 00:30N 37°46' W 009°13'1 1.4
2018-Jul-18 00:01N 37°47' W 009°14'1 1.6
2018-Jul-17 23:30N 37°47' W 009°15'1 1.8
2018-Jul-17 23:00N 37°47' W 009°16'1 1.9
2018-Jul-17 22:30N 37°48' W 009°17'4 9.0
2018-Jul-17 22:00N 37°46' W 009°22'612.3
2018-Jul-17 21:30N 37°43' W 009°29'510.7
2018-Jul-17 21:00N 37°40' W 009°34'1 2.2
2018-Jul-17 20:30N 37°41' W 009°34'1 2.8
2018-Jul-17 20:00N 37°42' W 009°33'1 2.9
2018-Jul-17 19:30N 37°44' W 009°33'2 3.1
2018-Jul-17 19:00N 37°45' W 009°32'1 3.0
2018-Jul-17 18:30N 37°47' W 009°32'1 2.9
2018-Jul-17 18:00N 37°48' W 009°31'1 2.7
2018-Jul-17 17:30N 37°49' W 009°31'1 2.5
2018-Jul-17 17:00N 37°51' W 009°30'1 2.6
2018-Jul-17 16:31N 37°52' W 009°30'1 2.6
2018-Jul-17 16:01N 37°53' W 009°29'1 2.6
2018-Jul-17 15:31N 37°54' W 009°29'1 2.4
2018-Jul-17 15:00N 37°56' W 009°29'1 2.4
2018-Jul-17 14:30N 37°57' W 009°28'1 2.3
2018-Jul-17 14:01N 37°58' W 009°28'1 2.3
2018-Jul-17 13:30N 37°59' W 009°27'1 2.2
2018-Jul-17 13:00N 38°00' W 009°27'1 2.2
2018-Jul-17 12:30N 38°01' W 009°27'1 2.2
2018-Jul-17 12:00N 38°02' W 009°27'1 2.1
2018-Jul-17 11:30N 38°03' W 009°27'1 1.9
2018-Jul-17 11:00N 38°04' W 009°27'1 1.8
2018-Jul-17 10:30N 38°05' W 009°26'1 1.7
2018-Jul-17 10:00N 38°06' W 009°27'1 2.2
2018-Jul-17 09:30N 38°06' W 009°25'611.5
2018-Jul-17 09:00N 38°03' W 009°19'613.0
2018-Jul-17 08:30N 37°59' W 009°12'713.7
2018-Jul-17 08:01N 37°55' W 009°05'3 6.0
2018-Jul-17 07:31N 37°54' W 009°02'1 1.1
2018-Jul-17 07:01N 37°54' W 009°03'0 1.0
2018-Jul-17 06:31N 37°54' W 009°03'0 0.9
2018-Jul-17 06:01N 37°54' W 009°04'0 0.7
2018-Jul-17 05:31N 37°54' W 009°04'0 0.7
2018-Jul-17 05:00N 37°54' W 009°05'1 1.1
2018-Jul-17 04:30N 37°54' W 009°05'1 1.4
2018-Jul-17 04:00N 37°55' W 009°06'1 1.3
2018-Jul-17 03:30N 37°55' W 009°06'1 1.5
2018-Jul-17 03:01N 37°56' W 009°07'1 1.3
2018-Jul-17 02:31N 37°56' W 009°08'1 1.2
2018-Jul-17 02:01N 37°56' W 009°09'1 1.4
2018-Jul-17 01:30N 37°57' W 009°09'1 1.8
2018-Jul-17 01:01N 37°57' W 009°10'1 1.5
2018-Jul-17 00:30N 37°58' W 009°11'2 1.7
2018-Jul-16 23:30N 37°59' W 009°12'1 2.1
2018-Jul-16 23:01N 38°00' W 009°13'1 2.1
2018-Jul-16 22:31N 38°01' W 009°14'1 2.0
2018-Jul-16 22:00N 38°02' W 009°15'1 2.2
2018-Jul-16 21:31N 38°02' W 009°16'1 2.4
2018-Jul-16 21:00N 38°03' W 009°17'1 2.3
2018-Jul-16 20:31N 38°04' W 009°18'1 2.3
2018-Jul-16 20:00N 38°05' W 009°19'1 2.3
2018-Jul-16 19:31N 38°05' W 009°20'1 2.3
2018-Jul-16 19:00N 38°06' W 009°22'1 2.1
2018-Jul-16 18:31N 38°06' W 009°23'1 2.1
2018-Jul-16 18:01N 38°07' W 009°24'1 2.0
2018-Jul-16 17:31N 38°07' W 009°25'1 2.1
2018-Jul-16 17:01N 38°08' W 009°26'1 1.9
2018-Jul-16 16:31N 38°08' W 009°27'0 0.5
2018-Jul-16 16:01N 38°08' W 009°27'611.0
2018-Jul-16 15:31N 38°09' W 009°21'713.2
2018-Jul-16 15:01N 38°10' W 009°12'713.1
2018-Jul-16 14:30N 38°10' W 009°04'4 8.5
2018-Jul-16 14:00N 38°09' W 008°59'1 1.4
2018-Jul-16 13:31N 38°09' W 008°59'1 1.4
2018-Jul-16 13:01N 38°09' W 009°00'1 1.4
2018-Jul-16 12:30N 38°08' W 009°01'1 1.3
2018-Jul-16 12:01N 38°08' W 009°02'1 1.2
2018-Jul-16 11:30N 38°08' W 009°02'1 1.3
2018-Jul-16 11:01N 38°08' W 009°03'0 0.9
2018-Jul-16 10:31N 38°08' W 009°04'1 1.3
2018-Jul-16 10:01N 38°09' W 009°04'1 1.2
2018-Jul-16 09:30N 38°09' W 009°05'1 1.1
2018-Jul-16 09:01N 38°09' W 009°06'1 1.0
2018-Jul-16 08:31N 38°09' W 009°07'1 1.0
2018-Jul-16 08:01N 38°09' W 009°07'1 1.1
2018-Jul-16 07:30N 38°09' W 009°08'1 1.1
2018-Jul-16 07:01N 38°09' W 009°09'1 1.2
2018-Jul-16 06:30N 38°09' W 009°09'1 1.0
2018-Jul-16 06:00N 38°09' W 009°10'1 1.1
2018-Jul-16 05:30N 38°09' W 009°11'0 1.0
2018-Jul-16 05:00N 38°09' W 009°11'1 1.0
2018-Jul-16 04:31N 38°09' W 009°12'1 1.1
2018-Jul-16 04:00N 38°08' W 009°13'1 1.1
2018-Jul-16 03:30N 38°08' W 009°13'1 1.1
2018-Jul-16 03:01N 38°08' W 009°14'1 1.1
2018-Jul-16 02:31N 38°08' W 009°15'1 1.2
2018-Jul-16 02:00N 38°09' W 009°15'1 1.2
2018-Jul-16 01:30N 38°09' W 009°16'1 1.4
2018-Jul-16 01:00N 38°09' W 009°17'1 1.2
2018-Jul-16 00:31N 38°10' W 009°18'1 1.1
2018-Jul-16 00:00N 38°10' W 009°18'1 1.0
2018-Jul-15 23:30N 38°10' W 009°19'0 0.5
2018-Jul-15 23:00N 38°10' W 009°19'5 9.4
2018-Jul-15 22:31N 38°08' W 009°13'611.1
2018-Jul-15 22:00N 38°06' W 009°07'1 1.2
2018-Jul-15 21:30N 38°06' W 009°07'1 1.5
2018-Jul-15 21:01N 38°06' W 009°08'1 1.6
2018-Jul-15 20:31N 38°06' W 009°09'1 1.5
2018-Jul-15 20:01N 38°07' W 009°10'1 1.6
2018-Jul-15 19:30N 38°07' W 009°11'1 1.6
2018-Jul-15 19:00N 38°07' W 009°12'1 1.5
2018-Jul-15 18:30N 38°08' W 009°13'1 1.7
2018-Jul-15 18:00N 38°08' W 009°14'1 1.7
2018-Jul-15 17:31N 38°08' W 009°15'1 1.6
2018-Jul-15 17:00N 38°09' W 009°16'1 1.6
2018-Jul-15 16:28N 38°09' W 009°17'1 1.5
2018-Jul-15 16:00N 38°08' W 009°18'5 9.8
2018-Jul-15 15:30N 38°11' W 009°12'713.4
2018-Jul-15 15:00N 38°14' W 009°04'4 8.1
2018-Jul-15 14:31N 38°15' W 008°60'1 1.5
2018-Jul-15 14:01N 38°15' W 009°01'1 1.4
2018-Jul-15 13:31N 38°15' W 009°01'1 1.3
2018-Jul-15 13:00N 38°15' W 009°02'1 1.2
2018-Jul-15 12:31N 38°15' W 009°03'1 1.3
2018-Jul-15 12:00N 38°15' W 009°04'1 1.5
2018-Jul-15 11:30N 38°14' W 009°04'1 1.3
2018-Jul-15 11:00N 38°14' W 009°05'1 1.0
2018-Jul-15 10:31N 38°14' W 009°06'0 0.9
2018-Jul-15 10:00N 38°13' W 009°06'1 1.1
2018-Jul-15 09:31N 38°13' W 009°07'1 1.1
2018-Jul-15 09:00N 38°13' W 009°07'0 1.0
2018-Jul-15 08:31N 38°12' W 009°08'0 1.0
2018-Jul-15 08:01N 38°12' W 009°08'0 0.9
2018-Jul-15 07:30N 38°12' W 009°09'0 1.0
2018-Jul-15 07:01N 38°11' W 009°09'1 1.1
2018-Jul-15 06:30N 38°11' W 009°10'1 1.0
2018-Jul-15 06:01N 38°11' W 009°10'0 0.9
2018-Jul-15 05:30N 38°11' W 009°11'1 1.2
2018-Jul-15 05:00N 38°11' W 009°12'1 1.1
2018-Jul-15 04:30N 38°11' W 009°12'0 0.8
2018-Jul-15 04:00N 38°10' W 009°13'0 0.8
2018-Jul-15 03:30N 38°10' W 009°13'0 0.7
2018-Jul-15 03:01N 38°10' W 009°14'0 0.6
2018-Jul-15 02:30N 38°10' W 009°14'0 0.7
2018-Jul-15 02:01N 38°10' W 009°14'0 0.8
2018-Jul-15 01:30N 38°09' W 009°15'3 6.3
2018-Jul-15 01:00N 38°12' W 009°12'713.9
2018-Jul-15 00:30N 38°17' W 009°06'713.7
2018-Jul-15 00:00N 38°22' W 009°01'3 6.4
2018-Jul-14 23:31N 38°25' W 008°59'4 8.3
2018-Jul-14 23:00N 38°29' W 008°56'4 7.9
2018-Jul-14 22:30N 38°28' W 008°51'0 0.3
2018-Jul-14 21:58N 38°28' W 008°51'0 0.0
2018-Jul-14 21:28N 38°28' W 008°51'0 0.0
2018-Jul-14 20:55N 38°28' W 008°51'0 0.0
2018-Jul-14 20:28N 38°28' W 008°51'0 0.0
2018-Jul-14 19:49N 38°28' W 008°51'0 0.0
2018-Jul-14 19:28N 38°28' W 008°51'0 0.0
2018-Jul-14 18:49N 38°28' W 008°51'0 0.0
2018-Jul-14 18:28N 38°28' W 008°51'0 0.0
2018-Jul-14 17:58N 38°28' W 008°51'0 0.1
2018-Jul-14 17:28N 38°29' W 008°51'0 0.4
2018-Jul-14 16:59N 38°28' W 008°51'0 0.3
2018-Jul-14 16:30N 38°28' W 008°51'1 2.9
2018-Jul-14 16:00N 38°28' W 008°49'1 0.3
2018-Jul-14 11:02N 38°28' W 008°47'0 0.0
2018-Jul-14 10:50N 38°28' W 008°47'0 0.0
2018-Jul-14 09:56N 38°28' W 008°47'  
Track history (hours):
 
Tides and Currents Weather Stations Pressure Air Temp Water Temp Dewpoint Dewpoint Depression Visibility Wind Speed Wind Dir Waves Ship Positions

Dukhan

Last reported at 2018-Jul-19 13:00 UTC. Time now 2018-Jul-19 13:23 UTC.
Position N 37°35' W 008°56'.

Length 176 m; draft 4.6 m.

Type: Tanker. MMSI: 466217000.

Date/timePositionNaut miles runAvg speedWind from/ knotsBaromVisibWave heightAir tempDewpointWater temp
2018-Jul-19 13:00N 37°35' W 008°56'1 1.3
2018-Jul-19 12:30N 37°36' W 008°57'1 1.2
2018-Jul-19 12:00N 37°36' W 008°57'1 1.0
2018-Jul-19 11:30N 37°36' W 008°58'0 0.9
2018-Jul-19 11:00N 37°37' W 008°58'1 1.1
2018-Jul-19 10:30N 37°37' W 008°59'0 1.0
2018-Jul-19 10:00N 37°37' W 008°59'0 0.8
2018-Jul-19 09:31N 37°37' W 008°60'0 0.7
2018-Jul-19 09:01N 37°37' W 009°00'0 0.8
2018-Jul-19 08:30N 37°37' W 009°01'0 0.7
2018-Jul-19 08:00N 37°37' W 009°01'0 0.8
2018-Jul-19 07:30N 37°37' W 009°02'0 0.8
2018-Jul-19 07:00N 37°37' W 009°02'0 0.8
2018-Jul-19 06:30N 37°37' W 009°03'0 0.8
2018-Jul-19 06:01N 37°38' W 009°03'0 0.8
2018-Jul-19 05:30N 37°38' W 009°04'0 0.7
2018-Jul-19 05:01N 37°38' W 009°04'0 0.8
2018-Jul-19 04:30N 37°38' W 009°05'0 0.8
2018-Jul-19 04:00N 37°38' W 009°05'0 0.8
2018-Jul-19 03:30N 37°38' W 009°06'0 0.9
2018-Jul-19 03:00N 37°38' W 009°06'0 0.9
2018-Jul-19 02:30N 37°38' W 009°07'0 0.8
2018-Jul-19 02:00N 37°38' W 009°07'0 0.9
2018-Jul-19 01:30N 37°39' W 009°08'0 0.9
2018-Jul-19 01:00N 37°39' W 009°08'0 1.0
2018-Jul-19 00:30N 37°39' W 009°09'0 0.9
2018-Jul-19 00:00N 37°39' W 009°09'0 1.0
2018-Jul-18 23:30N 37°39' W 009°10'1 1.1
2018-Jul-18 23:00N 37°40' W 009°10'1 1.2
2018-Jul-18 22:29N 37°40' W 009°11'1 1.2
2018-Jul-18 22:00N 37°41' W 009°11'1 1.4
2018-Jul-18 21:30N 37°41' W 009°12'1 1.5
2018-Jul-18 21:00N 37°42' W 009°12'1 1.4
2018-Jul-18 20:30N 37°42' W 009°13'1 1.3
2018-Jul-18 20:00N 37°43' W 009°13'1 1.2
2018-Jul-18 19:30N 37°43' W 009°14'1 1.2
2018-Jul-18 18:59N 37°44' W 009°14'1 1.2
2018-Jul-18 18:25N 37°44' W 009°15'1 1.4
2018-Jul-18 18:01N 37°45' W 009°15'1 1.4
2018-Jul-18 17:30N 37°46' W 009°16'1 1.3
2018-Jul-18 17:00N 37°46' W 009°16'1 1.3
2018-Jul-18 16:30N 37°47' W 009°16'1 1.3
2018-Jul-18 16:01N 37°47' W 009°17'1 1.3
2018-Jul-18 15:31N 37°48' W 009°17'1 1.4
2018-Jul-18 15:00N 37°48' W 009°17'2 4.5
2018-Jul-18 14:31N 37°48' W 009°15'1313.2
2018-Jul-18 13:30N 37°45' W 008°58'2 3.7
2018-Jul-18 13:00N 37°44' W 008°56'1 1.2
2018-Jul-18 12:30N 37°44' W 008°57'1 1.3
2018-Jul-18 12:01N 37°45' W 008°58'1 1.1
2018-Jul-18 11:31N 37°45' W 008°58'1 1.1
2018-Jul-18 10:30N 37°45' W 008°59'0 1.0
2018-Jul-18 10:00N 37°45' W 009°00'1 1.0
2018-Jul-18 09:31N 37°45' W 009°01'1 1.0
2018-Jul-18 08:58N 37°45' W 009°01'0 1.0
2018-Jul-18 08:31N 37°45' W 009°02'1 1.1
2018-Jul-18 08:01N 37°45' W 009°03'1 1.2
2018-Jul-18 07:30N 37°45' W 009°03'1 1.1
2018-Jul-18 07:00N 37°45' W 009°04'1 1.2
2018-Jul-18 06:31N 37°45' W 009°05'1 1.2
2018-Jul-18 06:00N 37°45' W 009°06'1 1.2
2018-Jul-18 05:31N 37°45' W 009°06'1 1.1
2018-Jul-18 05:01N 37°45' W 009°07'1 1.1
2018-Jul-18 04:29N 37°45' W 009°08'1 1.1
2018-Jul-18 04:01N 37°45' W 009°08'1 1.1
2018-Jul-18 03:30N 37°45' W 009°09'1 1.1
2018-Jul-18 03:00N 37°45' W 009°10'0 1.0
2018-Jul-18 02:30N 37°45' W 009°10'1 1.0
2018-Jul-18 02:01N 37°45' W 009°11'1 1.1
2018-Jul-18 01:30N 37°46' W 009°12'1 1.2
2018-Jul-18 01:01N 37°46' W 009°12'1 1.4
2018-Jul-18 00:30N 37°46' W 009°13'1 1.4
2018-Jul-18 00:01N 37°47' W 009°14'1 1.6
2018-Jul-17 23:30N 37°47' W 009°15'1 1.8
2018-Jul-17 23:00N 37°47' W 009°16'1 1.9
2018-Jul-17 22:30N 37°48' W 009°17'4 9.0
2018-Jul-17 22:00N 37°46' W 009°22'612.3
2018-Jul-17 21:30N 37°43' W 009°29'510.7
2018-Jul-17 21:00N 37°40' W 009°34'1 2.2
2018-Jul-17 20:30N 37°41' W 009°34'1 2.8
2018-Jul-17 20:00N 37°42' W 009°33'1 2.9
2018-Jul-17 19:30N 37°44' W 009°33'2 3.1
2018-Jul-17 19:00N 37°45' W 009°32'1 3.0
2018-Jul-17 18:30N 37°47' W 009°32'1 2.9
2018-Jul-17 18:00N 37°48' W 009°31'1 2.7
2018-Jul-17 17:30N 37°49' W 009°31'1 2.5
2018-Jul-17 17:00N 37°51' W 009°30'1 2.6
2018-Jul-17 16:31N 37°52' W 009°30'1 2.6
2018-Jul-17 16:01N 37°53' W 009°29'1 2.6
2018-Jul-17 15:31N 37°54' W 009°29'1 2.4
2018-Jul-17 15:00N 37°56' W 009°29'1 2.4
2018-Jul-17 14:30N 37°57' W 009°28'1 2.3
2018-Jul-17 14:01N 37°58' W 009°28'1 2.3
2018-Jul-17 13:30N 37°59' W 009°27'1 2.2
2018-Jul-17 13:00N 38°00' W 009°27'1 2.2
2018-Jul-17 12:30N 38°01' W 009°27'1 2.2
2018-Jul-17 12:00N 38°02' W 009°27'1 2.1
2018-Jul-17 11:30N 38°03' W 009°27'1 1.9
2018-Jul-17 11:00N 38°04' W 009°27'1 1.8
2018-Jul-17 10:30N 38°05' W 009°26'1 1.7
2018-Jul-17 10:00N 38°06' W 009°27'1 2.2
2018-Jul-17 09:30N 38°06' W 009°25'611.5
2018-Jul-17 09:00N 38°03' W 009°19'613.0
2018-Jul-17 08:30N 37°59' W 009°12'713.7
2018-Jul-17 08:01N 37°55' W 009°05'3 6.0
2018-Jul-17 07:31N 37°54' W 009°02'1 1.1
2018-Jul-17 07:01N 37°54' W 009°03'0 1.0
2018-Jul-17 06:31N 37°54' W 009°03'0 0.9
2018-Jul-17 06:01N 37°54' W 009°04'0 0.7
2018-Jul-17 05:31N 37°54' W 009°04'0 0.7
2018-Jul-17 05:00N 37°54' W 009°05'1 1.1
2018-Jul-17 04:30N 37°54' W 009°05'1 1.4
2018-Jul-17 04:00N 37°55' W 009°06'1 1.3
2018-Jul-17 03:30N 37°55' W 009°06'1 1.5
2018-Jul-17 03:01N 37°56' W 009°07'1 1.3
2018-Jul-17 02:31N 37°56' W 009°08'1 1.2
2018-Jul-17 02:01N 37°56' W 009°09'1 1.4
2018-Jul-17 01:30N 37°57' W 009°09'1 1.8
2018-Jul-17 01:01N 37°57' W 009°10'1 1.5
2018-Jul-17 00:30N 37°58' W 009°11'2 1.7
2018-Jul-16 23:30N 37°59' W 009°12'1 2.1
2018-Jul-16 23:01N 38°00' W 009°13'1 2.1
2018-Jul-16 22:31N 38°01' W 009°14'1 2.0
2018-Jul-16 22:00N 38°02' W 009°15'1 2.2
2018-Jul-16 21:31N 38°02' W 009°16'1 2.4
2018-Jul-16 21:00N 38°03' W 009°17'1 2.3
2018-Jul-16 20:31N 38°04' W 009°18'1 2.3
2018-Jul-16 20:00N 38°05' W 009°19'1 2.3
2018-Jul-16 19:31N 38°05' W 009°20'1 2.3
2018-Jul-16 19:00N 38°06' W 009°22'1 2.1
2018-Jul-16 18:31N 38°06' W 009°23'1 2.1
2018-Jul-16 18:01N 38°07' W 009°24'1 2.0
2018-Jul-16 17:31N 38°07' W 009°25'1 2.1
2018-Jul-16 17:01N 38°08' W 009°26'1 1.9
2018-Jul-16 16:31N 38°08' W 009°27'0 0.5
2018-Jul-16 16:01N 38°08' W 009°27'611.0
2018-Jul-16 15:31N 38°09' W 009°21'713.2
2018-Jul-16 15:01N 38°10' W 009°12'713.1
2018-Jul-16 14:30N 38°10' W 009°04'4 8.5
2018-Jul-16 14:00N 38°09' W 008°59'1 1.4
2018-Jul-16 13:31N 38°09' W 008°59'1 1.4
2018-Jul-16 13:01N 38°09' W 009°00'1 1.4
2018-Jul-16 12:30N 38°08' W 009°01'1 1.3
2018-Jul-16 12:01N 38°08' W 009°02'1 1.2
2018-Jul-16 11:30N 38°08' W 009°02'1 1.3
2018-Jul-16 11:01N 38°08' W 009°03'0 0.9
2018-Jul-16 10:31N 38°08' W 009°04'1 1.3
2018-Jul-16 10:01N 38°09' W 009°04'1 1.2
2018-Jul-16 09:30N 38°09' W 009°05'1 1.1
2018-Jul-16 09:01N 38°09' W 009°06'1 1.0
2018-Jul-16 08:31N 38°09' W 009°07'1 1.0
2018-Jul-16 08:01N 38°09' W 009°07'1 1.1
2018-Jul-16 07:30N 38°09' W 009°08'1 1.1
2018-Jul-16 07:01N 38°09' W 009°09'1 1.2
2018-Jul-16 06:30N 38°09' W 009°09'1 1.0
2018-Jul-16 06:00N 38°09' W 009°10'1 1.1
2018-Jul-16 05:30N 38°09' W 009°11'0 1.0
2018-Jul-16 05:00N 38°09' W 009°11'1 1.0
2018-Jul-16 04:31N 38°09' W 009°12'1 1.1
2018-Jul-16 04:00N 38°08' W 009°13'1 1.1
2018-Jul-16 03:30N 38°08' W 009°13'1 1.1
2018-Jul-16 03:01N 38°08' W 009°14'1 1.1
2018-Jul-16 02:31N 38°08' W 009°15'1 1.2
2018-Jul-16 02:00N 38°09' W 009°15'1 1.2
2018-Jul-16 01:30N 38°09' W 009°16'1 1.4
2018-Jul-16 01:00N 38°09' W 009°17'1 1.2
2018-Jul-16 00:31N 38°10' W 009°18'1 1.1
2018-Jul-16 00:00N 38°10' W 009°18'1 1.0
2018-Jul-15 23:30N 38°10' W 009°19'0 0.5
2018-Jul-15 23:00N 38°10' W 009°19'5 9.4
2018-Jul-15 22:31N 38°08' W 009°13'611.1
2018-Jul-15 22:00N 38°06' W 009°07'1 1.2
2018-Jul-15 21:30N 38°06' W 009°07'1 1.5
2018-Jul-15 21:01N 38°06' W 009°08'1 1.6
2018-Jul-15 20:31N 38°06' W 009°09'1 1.5
2018-Jul-15 20:01N 38°07' W 009°10'1 1.6
2018-Jul-15 19:30N 38°07' W 009°11'1 1.6
2018-Jul-15 19:00N 38°07' W 009°12'1 1.5
2018-Jul-15 18:30N 38°08' W 009°13'1 1.7
2018-Jul-15 18:00N 38°08' W 009°14'1 1.7
2018-Jul-15 17:31N 38°08' W 009°15'1 1.6
2018-Jul-15 17:00N 38°09' W 009°16'1 1.6
2018-Jul-15 16:28N 38°09' W 009°17'1 1.5
2018-Jul-15 16:00N 38°08' W 009°18'5 9.8
2018-Jul-15 15:30N 38°11' W 009°12'713.4
2018-Jul-15 15:00N 38°14' W 009°04'4 8.1
2018-Jul-15 14:31N 38°15' W 008°60'1 1.5
2018-Jul-15 14:01N 38°15' W 009°01'1 1.4
2018-Jul-15 13:31N 38°15' W 009°01'1 1.3
2018-Jul-15 13:00N 38°15' W 009°02'1 1.2
2018-Jul-15 12:31N 38°15' W 009°03'1 1.3
2018-Jul-15 12:00N 38°15' W 009°04'1 1.5
2018-Jul-15 11:30N 38°14' W 009°04'1 1.3
2018-Jul-15 11:00N 38°14' W 009°05'1 1.0
2018-Jul-15 10:31N 38°14' W 009°06'0 0.9
2018-Jul-15 10:00N 38°13' W 009°06'1 1.1
2018-Jul-15 09:31N 38°13' W 009°07'1 1.1
2018-Jul-15 09:00N 38°13' W 009°07'0 1.0
2018-Jul-15 08:31N 38°12' W 009°08'0 1.0
2018-Jul-15 08:01N 38°12' W 009°08'0 0.9
2018-Jul-15 07:30N 38°12' W 009°09'0 1.0
2018-Jul-15 07:01N 38°11' W 009°09'1 1.1
2018-Jul-15 06:30N 38°11' W 009°10'1 1.0
2018-Jul-15 06:01N 38°11' W 009°10'0 0.9
2018-Jul-15 05:30N 38°11' W 009°11'1 1.2
2018-Jul-15 05:00N 38°11' W 009°12'1 1.1
2018-Jul-15 04:30N 38°11' W 009°12'0 0.8
2018-Jul-15 04:00N 38°10' W 009°13'0 0.8
2018-Jul-15 03:30N 38°10' W 009°13'0 0.7
2018-Jul-15 03:01N 38°10' W 009°14'0 0.6
2018-Jul-15 02:30N 38°10' W 009°14'0 0.7
2018-Jul-15 02:01N 38°10' W 009°14'0 0.8
2018-Jul-15 01:30N 38°09' W 009°15'3 6.3
2018-Jul-15 01:00N 38°12' W 009°12'713.9
2018-Jul-15 00:30N 38°17' W 009°06'713.7
2018-Jul-15 00:00N 38°22' W 009°01'3 6.4
2018-Jul-14 23:31N 38°25' W 008°59'4 8.3
2018-Jul-14 23:00N 38°29' W 008°56'4 7.9
2018-Jul-14 22:30N 38°28' W 008°51'0 0.3
2018-Jul-14 21:58N 38°28' W 008°51'0 0.0
2018-Jul-14 21:28N 38°28' W 008°51'0 0.0
2018-Jul-14 20:55N 38°28' W 008°51'0 0.0
2018-Jul-14 20:28N 38°28' W 008°51'0 0.0
2018-Jul-14 19:49N 38°28' W 008°51'0 0.0
2018-Jul-14 19:28N 38°28' W 008°51'0 0.0
2018-Jul-14 18:49N 38°28' W 008°51'0 0.0
2018-Jul-14 18:28N 38°28' W 008°51'0 0.0
2018-Jul-14 17:58N 38°28' W 008°51'0 0.1
2018-Jul-14 17:28N 38°29' W 008°51'0 0.4
2018-Jul-14 16:59N 38°28' W 008°51'0 0.3
2018-Jul-14 16:30N 38°28' W 008°51'1 2.9
2018-Jul-14 16:00N 38°28' W 008°49'1 0.3
2018-Jul-14 11:02N 38°28' W 008°47'0 0.0
2018-Jul-14 10:50N 38°28' W 008°47'0 0.0
2018-Jul-14 09:56N 38°28' W 008°47'  

Dump ship's entire track history